Terminal Aerodrome Forecast
Issued by NWS Central Illinois

Home | Current Version | Previous Version | Text Only | Print | Product List | Glossary On
Versions: 1 2 3 4 5 6 7 8 9 10 11 12 13 14 15 16 17 18 19 20 21 22 23 24 25 26 27 28 29 30 31 32 33 34 35 36 37 38 39
634
FTUS43 KILX 171354 AAC
TAFSPI
TAF AMD
KSPI 171354Z 1714/1812 25013KT 6SM -DZ BR OVC006
     FM171600 27010KT 4SM BR OVC005
     FM180200 27010KT P6SM OVC015
     FM180600 27009KT P6SM BKN050=

USA.gov is the U.S. government's official web portal to all federal, state and local government web resources and services.